Over, United Kingdom
Current Conditions -  °F | °C
As of 10:50 PM on Thursday 18 Dec 2014 (Local Time) from EGGP Reporting Station
Rain Showers Rain Showers  
Wind Chill: 50°   Ceiling: 1200
Heat Index: 50°   Visibility: 4mi
Dew Point: 48°   Wind: 16mph
Humidity: 94%   Direction: 280°W
Pressure: 29.65"   Gusts: NA
Location:  53.18°N, 2.55°W
Report Text: EGGP 182250Z 28014KT 7000 -SHRA FEW007 BKN012 10/09 Q1004
Loading
Personal Weather Stations






























Interactive Weather Map New forecast layout! Learn more

10-Day Weather Forecast

Advertisements
Track Severe Weather on mobile